createdAt,value
2018-12-07T00:27:36.797Z,97634.02
2018-12-07T00:53:49.316Z,97616.91
2018-12-07T00:58:44.357Z,97605.03
2018-12-07T01:03:39.395Z,97600.58
2018-12-07T01:14:32.205Z,97591.48
2018-12-07T01:19:27.025Z,97591.69
2018-12-07T01:24:22.155Z,97593.83
2018-12-07T01:29:16.981Z,97592.63
2018-12-07T01:34:16.656Z,97584.20
2018-12-07T01:39:12.815Z,97583.00
2018-12-07T01:44:07.883Z,97580.28
2018-12-07T01:49:03.860Z,97569.34
2018-12-07T01:54:00.753Z,97564.66
2018-12-07T01:58:57.705Z,97569.92
2018-12-07T02:03:52.669Z,97557.31
2018-12-07T02:08:47.522Z,97551.23
2018-12-07T02:13:42.536Z,97539.29
2018-12-07T02:18:37.533Z,97528.62
2018-12-07T02:23:32.698Z,97525.64
2018-12-07T02:28:32.256Z,97533.92
2018-12-07T02:33:31.939Z,97530.30
2018-12-07T02:38:28.473Z,97523.95
2018-12-07T02:43:24.688Z,97512.81
2018-12-07T02:48:20.389Z,97517.78
2018-12-07T02:53:16.379Z,97515.27
2018-12-07T02:58:12.089Z,97505.55
2018-12-07T03:03:09.334Z,97510.20
2018-12-07T03:08:08.242Z,97510.68
2018-12-07T03:13:07.479Z,97503.67
2018-12-07T03:18:02.648Z,97491.53
2018-12-07T03:22:57.571Z,97487.78
2018-12-07T03:27:53.413Z,97483.41
2018-12-07T03:32:49.694Z,97469.08
2018-12-07T03:37:44.725Z,97451.06
2018-12-07T03:42:40.539Z,97439.48
2018-12-07T03:47:35.423Z,97433.84
2018-12-07T03:52:30.385Z,97431.63
2018-12-07T03:57:26.086Z,97439.28
2018-12-07T04:02:20.948Z,97438.80
2018-12-07T04:07:19.269Z,97434.88
2018-12-07T04:12:18.624Z,97437.02
2018-12-07T04:17:19.306Z,97434.48
2018-12-07T04:22:14.847Z,97429.06
2018-12-07T04:27:11.361Z,97426.73
2018-12-07T04:32:09.691Z,97427.20
2018-12-07T04:37:06.099Z,97419.23
2018-12-07T04:42:01.045Z,97414.02
2018-12-07T04:46:58.367Z,97418.89
2018-12-07T04:51:54.439Z,97412.14
2018-12-07T04:56:49.518Z,97399.26
2018-12-07T05:01:46.157Z,97405.15
2018-12-07T05:06:41.942Z,97399.63
2018-12-07T05:11:37.693Z,97393.95
2018-12-07T05:16:32.636Z,97386.87
2018-12-07T05:26:41.483Z,97389.78
2018-12-07T05:31:36.620Z,97390.61
2018-12-07T05:36:31.452Z,97403.02
2018-12-07T05:41:26.397Z,97394.87
2018-12-07T05:46:21.382Z,97395.34
2018-12-07T05:51:18.789Z,97379.86
2018-12-07T05:56:15.787Z,97369.97
2018-12-07T06:01:10.761Z,97370.47
2018-12-07T06:06:05.786Z,97365.86
2018-12-07T06:11:01.176Z,97360.84
2018-12-07T06:15:56.025Z,97363.67
2018-12-07T06:20:55.550Z,97358.66
2018-12-07T06:25:50.687Z,97357.34
2018-12-07T06:30:45.605Z,97350.33
2018-12-07T06:35:42.577Z,97354.00
2018-12-07T06:40:37.601Z,97347.82
2018-12-07T06:45:35.272Z,97353.45
2018-12-07T06:50:30.588Z,97350.98
2018-12-07T06:55:25.606Z,97351.02
2018-12-07T07:00:21.272Z,97357.38
2018-12-07T07:05:16.245Z,97355.60
2018-12-07T07:10:11.052Z,97361.38
2018-12-07T07:15:06.533Z,97361.59
2018-12-07T07:20:01.328Z,97355.02
2018-12-07T07:24:56.292Z,97352.69
2018-12-07T07:29:51.564Z,97343.78
2018-12-07T07:34:46.336Z,97340.11
2018-12-07T07:39:41.284Z,97332.80
2018-12-07T07:44:36.181Z,97319.16
2018-12-07T07:49:31.048Z,97310.06
2018-12-07T07:54:26.785Z,97304.61
2018-12-07T07:59:22.460Z,97302.98
2018-12-07T08:04:17.601Z,97294.73
2018-12-07T08:09:12.478Z,97288.70
2018-12-07T08:14:07.420Z,97273.94
2018-12-07T08:19:02.300Z,97276.27
2018-12-07T08:23:57.420Z,97268.01
2018-12-07T08:28:52.451Z,97266.56
2018-12-07T08:33:47.570Z,97258.03
2018-12-07T08:38:42.584Z,97242.89
2018-12-07T08:43:39.053Z,97236.98
2018-12-07T08:59:33.171Z,97228.13
2018-12-07T09:15:30.759Z,97211.70
2018-12-07T09:46:32.990Z,97175.55
2018-12-07T09:51:34.024Z,97162.65
2018-12-07T09:56:34.902Z,97153.50
2018-12-07T10:01:34.839Z,97149.73
2018-12-07T10:06:33.841Z,97146.85
2018-12-07T10:27:24.368Z,97085.05
2018-12-07T10:32:19.774Z,97074.74
2018-12-07T10:37:14.797Z,97054.00
2018-12-07T10:42:09.920Z,97032.04
2018-12-07T10:47:05.461Z,97028.48
2018-12-07T10:52:00.910Z,97016.41
2018-12-07T10:56:55.803Z,96999.69
2018-12-07T11:01:55.739Z,96990.98
2018-12-07T11:06:54.659Z,96966.87
2018-12-07T11:12:56.166Z,96951.59
2018-12-07T11:17:56.425Z,96938.92
2018-12-07T11:22:56.525Z,96922.93
2018-12-07T11:27:56.680Z,96913.13
2018-12-07T11:32:56.711Z,96898.57
2018-12-07T11:37:51.793Z,96880.42
2018-12-07T11:42:46.763Z,96876.35
2018-12-07T11:47:41.669Z,96864.44
2018-12-07T11:52:36.464Z,96858.72
2018-12-07T11:57:31.336Z,96849.04
2018-12-07T12:02:26.681Z,96839.03
2018-12-07T12:07:21.769Z,96838.73
2018-12-07T12:12:16.973Z,96833.58
2018-12-07T12:17:12.111Z,96831.70
2018-12-07T12:22:07.997Z,96840.39
2018-12-07T12:27:05.795Z,96832.48
2018-12-07T12:32:00.810Z,96818.44
2018-12-07T12:36:58.992Z,96801.52
2018-12-07T12:41:54.746Z,96800.61
2018-12-07T12:46:50.215Z,96794.34
2018-12-07T12:51:45.186Z,96786.91
2018-12-07T12:56:41.032Z,96791.50
2018-12-07T13:01:35.882Z,96789.94
2018-12-07T13:06:30.858Z,96785.75
2018-12-07T13:11:31.752Z,96778.13
2018-12-07T13:16:26.675Z,96787.12
2018-12-07T13:21:21.586Z,96764.46
2018-12-07T13:26:17.134Z,96759.77
2018-12-07T13:31:13.869Z,96757.07
2018-12-07T13:36:10.252Z,96743.72
2018-12-07T13:41:32.622Z,96732.81
2018-12-07T13:46:27.656Z,96718.94
2018-12-07T13:51:24.260Z,96717.06
2018-12-07T13:56:19.477Z,96711.29
2018-12-07T14:01:16.180Z,96705.80
2018-12-07T14:06:11.430Z,96706.39
2018-12-07T14:11:06.619Z,96693.73
2018-12-07T14:16:01.985Z,96693.60
2018-12-07T14:20:57.022Z,96679.45
2018-12-07T14:25:56.694Z,96660.05
2018-12-07T14:30:54.174Z,96645.75
2018-12-07T14:35:54.623Z,96635.14
2018-12-07T14:40:56.887Z,96604.94
2018-12-07T14:52:09.718Z,96573.11
2018-12-07T14:57:10.363Z,96574.34
2018-12-07T15:02:05.874Z,96552.83
2018-12-07T15:07:08.150Z,96551.89
2018-12-07T15:12:03.383Z,96531.31
2018-12-07T15:16:58.589Z,96519.39
2018-12-07T15:21:54.657Z,96508.23
2018-12-07T15:26:59.494Z,96504.33
2018-12-07T15:32:00.338Z,96493.63
2018-12-07T15:36:58.409Z,96470.79
2018-12-07T15:42:17.997Z,96460.95
2018-12-07T15:47:19.111Z,96475.81
2018-12-07T15:52:20.228Z,96464.87
2018-12-07T15:57:22.905Z,96465.80
2018-12-07T16:02:41.826Z,96441.91
2018-12-07T16:07:38.999Z,96450.84
2018-12-07T16:12:34.845Z,96423.50
2018-12-07T16:17:29.893Z,96409.34
2018-12-07T16:22:25.450Z,96408.26
2018-12-07T16:27:20.981Z,96401.16
2018-12-07T16:32:17.786Z,96399.02
2018-12-07T16:37:13.749Z,96373.23
2018-12-07T16:42:11.358Z,96372.02
2018-12-07T16:47:18.757Z,96384.88
2018-12-07T16:52:14.066Z,96404.48
2018-12-07T16:57:09.060Z,96397.59
2018-12-07T17:02:04.281Z,96392.10
2018-12-07T17:06:59.207Z,96406.48
2018-12-07T17:11:55.893Z,96405.18
2018-12-07T17:16:51.224Z,96408.63
2018-12-07T17:32:33.677Z,96386.77
2018-12-07T17:37:34.704Z,96401.02
2018-12-07T17:42:34.898Z,96393.97
2018-12-07T17:47:34.790Z,96401.20
2018-12-07T17:57:51.802Z,96406.39
2018-12-07T18:02:46.935Z,96406.02
2018-12-07T18:07:42.042Z,96416.61
2018-12-07T18:12:37.678Z,96414.44
2018-12-07T18:17:32.842Z,96421.95
2018-12-07T18:22:27.983Z,96422.31
2018-12-07T18:27:23.066Z,96431.58
2018-12-07T18:32:18.163Z,96439.70
2018-12-07T18:37:13.710Z,96442.39
2018-12-07T18:42:08.940Z,96403.13
2018-12-07T18:47:06.062Z,96404.97
2018-12-07T18:52:01.517Z,96424.89
2018-12-07T18:56:56.686Z,96416.34
2018-12-07T19:01:51.863Z,96428.34
2018-12-07T19:06:46.779Z,96431.32
2018-12-07T19:11:41.777Z,96434.06
2018-12-07T19:16:36.908Z,96437.86
2018-12-07T19:21:32.876Z,96439.65
2018-12-07T19:26:27.997Z,96436.69
2018-12-07T19:31:23.064Z,96432.28
2018-12-07T19:36:18.066Z,96438.25
2018-12-07T19:41:14.655Z,96403.03
2018-12-07T19:46:09.702Z,96396.98
2018-12-07T19:51:09.901Z,96397.59
2018-12-07T19:56:05.192Z,96383.56
2018-12-07T20:01:00.345Z,96388.79
2018-12-07T20:05:55.789Z,96382.86
2018-12-07T20:10:50.877Z,96379.64
2018-12-07T20:15:45.946Z,96382.00
2018-12-07T20:21:04.568Z,96374.53
2018-12-07T20:32:19.903Z,96384.27
2018-12-07T20:37:45.456Z,96387.00
2018-12-07T20:42:40.524Z,96412.31
2018-12-07T20:47:35.580Z,96426.58
2018-12-07T20:52:30.471Z,96431.45
2018-12-07T20:57:25.849Z,96459.95
2018-12-07T21:02:21.163Z,96476.73
2018-12-07T21:09:34.744Z,96451.78
2018-12-07T21:14:49.719Z,96462.84
2018-12-07T21:19:55.256Z,96449.97
2018-12-07T21:24:51.981Z,96449.33
2018-12-07T21:31:02.360Z,96440.20
2018-12-07T21:41:33.181Z,96453.72
2018-12-07T21:46:28.142Z,96460.98
2018-12-07T21:51:38.831Z,96475.08
2018-12-07T21:56:33.663Z,96459.19
2018-12-07T22:01:28.698Z,96463.91
2018-12-07T22:06:25.843Z,96485.49
2018-12-07T22:11:21.191Z,96511.17
2018-12-07T22:16:16.086Z,96525.63
2018-12-07T22:21:11.203Z,96542.38
2018-12-07T22:26:06.706Z,96557.98
2018-12-07T22:31:02.238Z,96569.20
2018-12-07T22:35:57.224Z,96583.41
2018-12-07T22:40:52.279Z,96605.20
2018-12-07T22:45:59.205Z,96607.97
2018-12-07T22:56:03.487Z,96681.32
2018-12-07T23:00:58.796Z,96680.56
2018-12-07T23:05:54.081Z,96701.27
2018-12-07T23:10:48.861Z,96715.30
2018-12-07T23:15:43.793Z,96726.38
2018-12-07T23:20:38.714Z,96731.05
2018-12-07T23:25:33.903Z,96749.73
2018-12-07T23:30:28.799Z,96774.46
2018-12-07T23:35:23.839Z,96824.06
2018-12-07T23:40:18.972Z,96847.45
2018-12-07T23:45:14.138Z,96837.16
2018-12-07T23:50:09.471Z,96852.91
2018-12-07T23:55:04.654Z,96861.30
2018-12-07T23:59:59.578Z,96869.31
